Time;durP1;ratioP1;P1;durP2;ratioP2;P2;SDS_P1;SDS_P2;PMS_P1;PMS_P2;Temp;Humidity;BMP_temperature;BMP_pressure;BME280_temperature;BME280_humidity;BME280_pressure;Samples;Min_cycle;Max_cycle;Signal;HPM_P1;HPM_P2
2024/02/10 00:01:27;;;;;;;37.53;21.13;;;10.50;99.90;;;;;;4965878;28;20038;-79
2024/02/10 00:03:56;;;;;;;39.40;22.25;;;10.50;99.90;;;;;;4961902;28;20057;-79
2024/02/10 00:06:23;;;;;;;41.30;22.50;;;10.50;99.90;;;;;;4949548;28;20126;-81
2024/02/10 00:08:50;;;;;;;38.38;20.80;;;10.60;99.90;;;;;;4938329;28;20050;-80
2024/02/10 00:11:17;;;;;;;42.55;22.38;;;10.60;99.90;;;;;;4966300;28;20078;-81
2024/02/10 00:13:43;;;;;;;40.58;24.73;;;10.50;99.90;;;;;;4966208;28;20435;-81
2024/02/10 00:16:11;;;;;;;42.92;23.38;;;10.50;99.90;;;;;;4938193;28;20094;-80
2024/02/10 00:18:40;;;;;;;43.67;23.08;;;10.50;99.90;;;;;;4951525;28;20039;-81
2024/02/10 00:21:07;;;;;;;40.05;23.42;;;10.50;99.90;;;;;;4955308;28;20101;-81
2024/02/10 00:23:34;;;;;;;37.58;23.52;;;10.50;99.90;;;;;;4972824;28;20930;-80
2024/02/10 00:26:03;;;;;;;39.80;23.80;;;10.40;99.90;;;;;;4966222;28;20050;-80
2024/02/10 00:28:34;;;;;;;40.80;25.15;;;10.50;99.90;;;;;;4970998;28;20799;-80
2024/02/10 00:31:01;;;;;;;42.38;25.08;;;10.40;99.90;;;;;;4966971;28;20101;-80
2024/02/10 00:33:29;;;;;;;40.67;24.42;;;10.50;99.90;;;;;;4946502;28;20058;-80
2024/02/10 00:35:56;;;;;;;37.20;22.55;;;10.50;99.90;;;;;;4962460;28;20138;-80
2024/02/10 00:38:23;;;;;;;37.33;20.25;;;10.40;99.90;;;;;;4968619;28;20089;-81
2024/02/10 00:40:50;;;;;;;39.28;21.45;;;10.40;99.90;;;;;;4963614;28;20050;-80
2024/02/10 00:43:17;;;;;;;37.17;21.00;;;10.40;99.90;;;;;;4948897;28;20050;-80
2024/02/10 00:45:46;;;;;;;32.33;18.38;;;10.40;99.90;;;;;;4963816;28;20146;-79
2024/02/10 00:48:13;;;;;;;31.08;17.65;;;10.40;99.90;;;;;;4948289;28;20054;-80
2024/02/10 00:50:41;;;;;;;32.25;19.27;;;10.40;99.90;;;;;;4967604;28;20047;-80
2024/02/10 00:53:08;;;;;;;31.08;18.25;;;10.40;99.90;;;;;;4957010;28;20129;-80
2024/02/10 00:55:35;;;;;;;27.30;17.40;;;10.50;99.90;;;;;;4964234;28;20054;-80
2024/02/10 00:58:06;;;;;;;28.15;17.25;;;10.40;99.90;;;;;;4959447;28;20892;-80
2024/02/10 01:00:34;;;;;;;33.72;18.77;;;10.50;99.90;;;;;;4934828;28;20101;-81
2024/02/10 01:03:08;;;;;;;30.15;16.70;;;10.50;99.90;;;;;;4966911;28;20051;-80
2024/02/10 01:05:39;;;;;;;23.67;16.48;;;10.50;99.90;;;;;;4965069;28;20589;-80
2024/02/10 01:08:06;;;;;;;30.75;16.10;;;10.50;99.90;;;;;;4952294;28;20057;-79
2024/02/10 01:10:34;;;;;;;28.85;15.98;;;10.50;99.90;;;;;;4948419;28;20118;-80
2024/02/10 01:13:04;;;;;;;29.08;16.80;;;10.40;99.90;;;;;;4946586;28;20166;-80
2024/02/10 01:15:32;;;;;;;27.35;15.00;;;10.50;99.90;;;;;;4950444;28;20054;-81
2024/02/10 01:18:03;;;;;;;28.10;16.50;;;10.40;99.90;;;;;;4947927;28;20057;-80
2024/02/10 01:20:30;;;;;;;29.67;16.60;;;10.40;99.90;;;;;;4944587;28;20141;-81
2024/02/10 01:22:59;;;;;;;30.55;16.58;;;10.40;99.90;;;;;;4965845;28;20054;-79
2024/02/10 01:25:30;;;;;;;29.88;17.15;;;10.30;99.90;;;;;;4949157;28;20034;-79
2024/02/10 01:27:58;;;;;;;24.65;15.50;;;10.30;99.90;;;;;;4947721;28;20042;-79
2024/02/10 01:30:26;;;;;;;28.17;16.92;;;10.30;99.90;;;;;;4947343;28;20069;-78
2024/02/10 01:32:57;;;;;;;26.10;16.92;;;10.30;99.90;;;;;;4931301;28;20038;-79
2024/02/10 01:35:25;;;;;;;27.40;16.58;;;10.30;99.90;;;;;;4938890;28;20093;-78
2024/02/10 01:37:52;;;;;;;23.88;17.45;;;10.30;99.90;;;;;;4966060;28;20046;-79
2024/02/10 01:40:18;;;;;;;27.50;17.13;;;10.30;99.90;;;;;;4963858;28;20791;-79
2024/02/10 01:42:45;;;;;;;24.58;15.02;;;10.30;99.90;;;;;;4954704;28;20101;-79
2024/02/10 01:45:13;;;;;;;26.02;16.02;;;10.30;99.90;;;;;;4961681;28;20058;-78
2024/02/10 01:47:45;;;;;;;23.20;14.18;;;10.30;99.90;;;;;;4949574;28;20050;-79
2024/02/10 01:50:12;;;;;;;21.85;15.15;;;10.30;99.90;;;;;;4966730;28;20714;-78
2024/02/10 01:52:40;;;;;;;25.30;15.40;;;10.30;99.90;;;;;;4957553;28;20073;-79
2024/02/10 01:55:09;;;;;;;25.77;15.05;;;10.30;99.90;;;;;;4957460;28;20034;-78
2024/02/10 01:57:38;;;;;;;21.73;13.07;;;10.40;99.90;;;;;;4943017;28;20038;-78
2024/02/10 02:00:13;;;;;;;23.40;14.25;;;10.30;99.90;;;;;;4944118;28;20073;-78
2024/02/10 02:02:41;;;;;;;21.25;13.50;;;10.30;99.90;;;;;;4969742;28;20046;-79
2024/02/10 02:05:08;;;;;;;17.60;12.02;;;10.30;99.90;;;;;;4974211;28;20060;-79
2024/02/10 02:07:35;;;;;;;25.30;14.48;;;10.30;99.90;;;;;;4954053;28;20046;-79
2024/02/10 02:10:02;;;;;;;20.33;13.13;;;10.30;99.90;;;;;;4944265;28;20116;-79
2024/02/10 02:12:31;;;;;;;18.48;12.38;;;10.30;99.90;;;;;;4955962;28;20060;-79
2024/02/10 02:14:58;;;;;;;20.88;12.85;;;10.40;99.90;;;;;;4963331;28;20128;-79
2024/02/10 02:17:26;;;;;;;18.83;11.88;;;10.30;99.90;;;;;;4962625;28;20476;-77
2024/02/10 02:19:53;;;;;;;22.27;12.80;;;10.40;99.90;;;;;;4946181;28;20405;-78
2024/02/10 02:22:20;;;;;;;21.55;13.27;;;10.40;99.90;;;;;;4966199;23;20059;-72
2024/02/10 02:24:47;;;;;;;16.40;12.20;;;10.40;99.90;;;;;;4928145;28;20515;-73
2024/02/10 02:27:15;;;;;;;22.13;12.77;;;10.40;99.90;;;;;;4921886;28;20051;-73
2024/02/10 02:29:42;;;;;;;18.20;11.38;;;10.40;99.90;;;;;;4922836;28;20051;-72
2024/02/10 02:32:10;;;;;;;17.13;12.23;;;10.40;99.90;;;;;;4923124;28;20081;-72
2024/02/10 02:34:37;;;;;;;20.65;12.45;;;10.40;99.90;;;;;;4925728;28;20054;-72
2024/02/10 02:37:06;;;;;;;16.15;10.98;;;10.30;99.90;;;;;;4908034;28;20047;-72
2024/02/10 02:39:33;;;;;;;14.73;10.18;;;10.30;99.90;;;;;;4908113;29;20622;-72
2024/02/10 02:42:02;;;;;;;13.82;8.82;;;10.30;99.90;;;;;;4902373;29;21223;-72
2024/02/10 02:44:29;;;;;;;11.85;8.25;;;10.20;99.90;;;;;;4916384;29;20043;-71
2024/02/10 02:46:56;;;;;;;13.15;9.63;;;10.20;99.90;;;;;;4919822;28;20051;-72
2024/02/10 02:49:23;;;;;;;12.23;9.75;;;10.20;99.90;;;;;;4921558;28;20117;-72
2024/02/10 02:51:51;;;;;;;12.68;8.70;;;10.20;99.90;;;;;;4925254;28;20138;-71
2024/02/10 02:54:18;;;;;;;13.52;8.35;;;10.20;99.90;;;;;;4928542;28;20059;-72
2024/02/10 02:56:50;;;;;;;10.40;7.82;;;10.20;99.90;;;;;;4923783;28;20039;-73
2024/02/10 02:59:19;;;;;;;10.43;8.05;;;10.20;99.90;;;;;;4923446;28;20047;-70
2024/02/10 03:01:51;;;;;;;11.35;7.45;;;10.10;99.90;;;;;;4917528;28;20075;-71
2024/02/10 03:04:21;;;;;;;9.98;7.15;;;10.10;99.90;;;;;;4925078;28;20142;-71
2024/02/10 03:06:50;;;;;;;10.35;7.25;;;10.10;99.90;;;;;;4922198;28;20052;-71
2024/02/10 03:09:17;;;;;;;11.32;7.68;;;10.10;99.90;;;;;;4929222;28;20050;-71
2024/02/10 03:11:44;;;;;;;11.77;6.65;;;10.10;99.90;;;;;;4922802;28;20172;-70
2024/02/10 03:14:11;;;;;;;9.73;7.00;;;10.10;99.90;;;;;;4923588;28;20052;-71
2024/02/10 03:16:38;;;;;;;7.50;5.70;;;10.10;99.90;;;;;;4926854;28;20066;-71
2024/02/10 03:19:06;;;;;;;9.90;6.35;;;10.10;99.90;;;;;;4925809;28;20051;-72
2024/02/10 03:21:35;;;;;;;8.35;5.43;;;10.10;99.90;;;;;;4929817;28;20761;-71
2024/02/10 03:24:04;;;;;;;10.20;6.00;;;10.10;99.90;;;;;;4940967;28;20058;-71
2024/02/10 03:26:31;;;;;;;13.02;6.07;;;10.10;99.90;;;;;;4938200;28;20577;-72
2024/02/10 03:29:03;;;;;;;9.60;5.38;;;10.10;99.90;;;;;;4946589;28;20117;-71
2024/02/10 03:31:30;;;;;;;6.65;5.30;;;10.10;99.90;;;;;;4944904;28;20050;-71
2024/02/10 03:33:58;;;;;;;9.82;6.40;;;10.10;99.90;;;;;;4944837;28;20054;-71
2024/02/10 03:36:25;;;;;;;7.25;5.70;;;10.10;99.90;;;;;;4927375;28;20392;-71
2024/02/10 03:38:54;;;;;;;6.95;5.30;;;10.10;99.90;;;;;;4921460;28;20036;-71
2024/02/10 03:41:21;;;;;;;7.82;5.90;;;10.10;99.90;;;;;;4923784;28;20044;-71
2024/02/10 03:43:48;;;;;;;9.77;5.57;;;10.20;99.90;;;;;;4922320;28;20065;-71
2024/02/10 03:46:16;;;;;;;7.05;5.65;;;10.20;99.90;;;;;;4936823;28;20043;-72
2024/02/10 03:48:44;;;;;;;11.52;6.13;;;10.20;99.90;;;;;;4971653;28;20086;-71
2024/02/10 03:51:11;;;;;;;7.35;5.60;;;10.10;99.90;;;;;;4936981;28;20055;-71
2024/02/10 03:53:38;;;;;;;6.72;5.60;;;10.10;99.90;;;;;;4944210;28;20051;-72
2024/02/10 03:56:10;;;;;;;7.07;5.80;;;10.10;99.90;;;;;;4925295;28;20256;-72
2024/02/10 03:58:41;;;;;;;8.02;6.30;;;10.00;99.90;;;;;;4929621;28;20105;-72
2024/02/10 04:01:13;;;;;;;8.23;6.47;;;10.10;99.90;;;;;;4936904;28;20050;-72
2024/02/10 04:03:44;;;;;;;;;;;10.20;99.90;;;;;;4945749;28;20040;-72
2024/02/10 04:06:15;;;;;;;12.07;7.30;;;10.10;99.90;;;;;;4945959;28;19922;-72
2024/02/10 04:08:47;;;;;;;8.18;6.45;;;10.10;99.90;;;;;;4946590;28;20169;-72
2024/02/10 04:11:16;;;;;;;10.68;7.78;;;10.10;99.90;;;;;;4938739;28;20085;-72
2024/02/10 04:13:45;;;;;;;11.15;8.40;;;10.10;99.90;;;;;;4950330;28;20150;-71
2024/02/10 04:16:12;;;;;;;11.63;7.97;;;10.10;99.90;;;;;;4924013;28;20039;-72
2024/02/10 04:18:41;;;;;;;13.82;8.57;;;10.10;99.90;;;;;;4943962;28;20047;-72
2024/02/10 04:21:09;;;;;;;10.57;8.13;;;10.10;99.90;;;;;;4942473;28;20443;-72
2024/02/10 04:23:39;;;;;;;11.23;7.32;;;10.10;99.90;;;;;;4945887;28;20043;-72
2024/02/10 04:26:06;;;;;;;11.43;8.18;;;10.10;99.90;;;;;;4945514;28;21918;-72
2024/02/10 04:28:36;;;;;;;12.32;8.73;;;10.00;99.90;;;;;;4963547;28;20042;-72
2024/02/10 04:31:13;;;;;;;11.73;8.45;;;10.10;99.90;;;;;;4941526;28;20130;-72
2024/02/10 04:33:50;;;;;;;13.25;9.27;;;10.00;99.90;;;;;;4952087;28;20049;-72
2024/02/10 04:36:17;;;;;;;11.20;8.40;;;10.00;99.90;;;;;;4946694;28;20042;-72
2024/02/10 04:38:44;;;;;;;12.85;8.93;;;10.00;99.90;;;;;;4942698;28;20934;-72
2024/02/10 04:41:11;;;;;;;12.63;9.70;;;10.00;99.90;;;;;;4946115;28;20051;-72
2024/02/10 04:43:37;;;;;;;14.07;8.75;;;10.00;99.90;;;;;;4956976;28;20054;-72
2024/02/10 04:46:04;;;;;;;15.13;10.13;;;10.00;99.90;;;;;;4964767;28;20046;-72
2024/02/10 04:48:31;;;;;;;14.63;9.82;;;10.00;99.90;;;;;;4935473;28;20075;-72
2024/02/10 04:50:59;;;;;;;13.85;9.40;;;9.90;99.90;;;;;;4949083;28;20533;-72
2024/02/10 04:53:27;;;;;;;12.38;9.02;;;9.90;99.90;;;;;;4944160;28;20529;-72
2024/02/10 04:55:53;;;;;;;15.40;9.38;;;9.90;99.90;;;;;;4964334;28;20051;-72
2024/02/10 04:58:21;;;;;;;15.95;10.13;;;9.90;99.90;;;;;;4944221;28;20695;-72
2024/02/10 05:00:48;;;;;;;15.00;10.07;;;9.90;99.90;;;;;;4945229;28;20051;-72
2024/02/10 05:03:15;;;;;;;13.52;9.73;;;9.80;99.90;;;;;;4950854;28;21052;-71
2024/02/10 05:05:42;;;;;;;15.07;9.63;;;9.90;99.90;;;;;;4969059;28;20598;-72
2024/02/10 05:08:13;;;;;;;16.48;10.20;;;9.90;99.90;;;;;;4940294;28;20047;-72
2024/02/10 05:10:41;;;;;;;13.95;9.05;;;9.90;99.90;;;;;;4944664;28;20062;-72
2024/02/10 05:13:07;;;;;;;17.27;10.30;;;9.90;99.90;;;;;;4945409;28;20700;-72
2024/02/10 05:15:34;;;;;;;15.20;9.82;;;9.80;99.90;;;;;;4944031;28;20130;-72
2024/02/10 05:18:05;;;;;;;17.50;10.70;;;9.80;99.90;;;;;;4945597;28;20105;-72
2024/02/10 05:20:32;;;;;;;17.50;10.93;;;9.80;99.90;;;;;;4950360;28;20054;-71
2024/02/10 05:23:01;;;;;;;17.73;10.82;;;9.80;99.90;;;;;;4940809;28;20047;-71
2024/02/10 05:25:34;;;;;;;17.05;10.57;;;9.70;99.90;;;;;;4965453;28;20051;-71
2024/02/10 05:28:01;;;;;;;20.33;11.55;;;9.70;99.90;;;;;;4947460;28;20403;-72
2024/02/10 05:30:29;;;;;;;21.75;12.45;;;9.70;99.90;;;;;;4943938;28;20051;-71
2024/02/10 05:32:59;;;;;;;23.95;13.38;;;9.70;99.90;;;;;;4952020;28;20074;-73
2024/02/10 05:35:29;;;;;;;23.30;13.73;;;9.70;99.90;;;;;;4948870;28;20105;-73
2024/02/10 05:37:59;;;;;;;25.92;14.38;;;9.70;99.90;;;;;;4943490;28;20078;-73
2024/02/10 05:40:27;;;;;;;24.40;13.02;;;9.80;99.90;;;;;;4945095;28;20043;-73
2024/02/10 05:42:58;;;;;;;24.92;14.75;;;9.80;99.90;;;;;;4943209;28;20055;-73
2024/02/10 05:45:25;;;;;;;23.50;14.07;;;9.70;99.90;;;;;;4951211;28;20046;-73
2024/02/10 05:47:52;;;;;;;28.88;15.30;;;9.70;99.90;;;;;;4946219;28;20568;-73
2024/02/10 05:50:22;;;;;;;28.40;15.25;;;9.70;99.90;;;;;;4939643;28;20047;-71
2024/02/10 05:52:57;;;;;;;26.70;16.23;;;9.70;99.90;;;;;;4946687;28;20043;-72
2024/02/10 05:55:26;;;;;;;27.63;16.40;;;9.70;99.90;;;;;;4947715;28;20138;-72
2024/02/10 05:58:04;;;;;;;31.15;16.63;;;9.80;99.90;;;;;;4945978;28;20101;-71
2024/02/10 06:00:32;;;;;;;29.42;16.40;;;9.80;99.90;;;;;;4944632;28;20149;-71
2024/02/10 06:03:00;;;;;;;27.40;16.38;;;9.70;99.90;;;;;;4943305;28;20158;-72
2024/02/10 06:05:27;;;;;;;30.92;16.58;;;9.70;99.90;;;;;;4950424;28;20042;-72
2024/02/10 06:07:56;;;;;;;28.30;16.98;;;9.70;99.90;;;;;;4938577;28;20060;-72
2024/02/10 06:10:23;;;;;;;31.38;17.05;;;9.60;99.90;;;;;;4943701;28;20046;-72
2024/02/10 06:12:51;;;;;;;29.42;17.40;;;9.60;99.90;;;;;;4926013;28;20103;-72
2024/02/10 06:15:19;;;;;;;26.88;16.75;;;9.60;99.90;;;;;;4927545;28;20043;-73
2024/02/10 06:17:51;;;;;;;30.65;17.05;;;9.60;99.90;;;;;;4963986;28;20641;-72
2024/02/10 06:20:22;;;;;;;33.15;17.40;;;9.60;99.90;;;;;;4948248;28;20158;-73
2024/02/10 06:22:54;;;;;;;32.20;18.00;;;9.60;99.90;;;;;;4943355;28;20051;-72
2024/02/10 06:25:25;;;;;;;31.20;17.52;;;9.60;99.90;;;;;;4946743;28;20047;-72
2024/02/10 06:27:55;;;;;;;33.70;18.52;;;9.60;99.90;;;;;;4943440;28;20054;-71
2024/02/10 06:30:27;;;;;;;30.23;17.13;;;9.60;99.90;;;;;;4951084;28;20078;-71
2024/02/10 06:32:55;;;;;;;29.00;17.05;;;9.60;99.90;;;;;;4948830;28;20058;-72
2024/02/10 06:35:23;;;;;;;32.97;17.85;;;9.60;99.90;;;;;;4941079;28;20074;-72
2024/02/10 06:37:49;;;;;;;26.70;17.35;;;9.60;99.90;;;;;;4943212;28;20073;-72
2024/02/10 06:40:18;;;;;;;29.67;16.92;;;9.70;99.90;;;;;;4943450;28;20051;-71
2024/02/10 06:42:50;;;;;;;30.60;17.92;;;9.60;99.90;;;;;;4935279;28;20667;-72
2024/02/10 06:45:21;;;;;;;28.85;16.90;;;9.60;99.90;;;;;;4935111;28;20047;-71
2024/02/10 06:47:51;;;;;;;32.40;19.40;;;9.60;99.90;;;;;;4942818;28;20535;-71
2024/02/10 06:50:26;;;;;;;28.25;17.30;;;9.60;99.90;;;;;;4940745;28;20058;-73
2024/02/10 06:52:54;;;;;;;33.88;18.60;;;9.60;99.90;;;;;;4948991;28;20129;-73
2024/02/10 06:55:26;;;;;;;29.25;16.83;;;9.60;99.90;;;;;;4943179;28;20558;-73
2024/02/10 06:57:55;;;;;;;29.33;16.95;;;9.60;99.90;;;;;;4943715;28;20043;-73
2024/02/10 07:00:23;;;;;;;28.15;16.85;;;9.60;99.90;;;;;;4923484;28;20566;-72
2024/02/10 07:02:51;;;;;;;28.13;16.40;;;9.60;99.90;;;;;;4926090;28;20757;-73
2024/02/10 07:05:19;;;;;;;25.90;15.40;;;9.60;99.90;;;;;;4927967;28;20051;-73
2024/02/10 07:07:48;;;;;;;28.35;16.92;;;9.60;99.90;;;;;;4926801;28;20058;-72
2024/02/10 07:10:17;;;;;;;25.25;16.33;;;9.70;99.90;;;;;;4927947;28;20047;-72
2024/02/10 07:12:46;;;;;;;25.50;15.30;;;9.70;99.90;;;;;;4904849;28;20051;-73
2024/02/10 07:15:18;;;;;;;25.13;15.07;;;9.70;99.90;;;;;;4921198;28;20064;-73
2024/02/10 07:17:49;;;;;;;24.20;13.52;;;9.70;99.90;;;;;;4919991;28;20130;-72
2024/02/10 07:20:20;;;;;;;23.83;14.23;;;9.80;99.90;;;;;;4928463;28;20043;-72
2024/02/10 07:22:57;;;;;;;24.67;15.60;;;9.80;99.90;;;;;;4944148;28;20046;-72
2024/02/10 07:25:29;;;;;;;18.02;11.63;;;9.90;99.90;;;;;;4948370;28;20058;-72
2024/02/10 07:28:04;;;;;;;22.02;14.02;;;9.80;99.90;;;;;;4948902;28;20047;-72
2024/02/10 07:30:32;;;;;;;22.35;13.63;;;9.80;99.90;;;;;;4942532;28;20039;-71
2024/02/10 07:33:12;;;;;;;23.13;13.77;;;9.90;99.90;;;;;;4947223;28;20765;-70
2024/02/10 07:35:40;;;;;;;23.98;15.50;;;9.90;99.90;;;;;;4929671;28;20073;-71
2024/02/10 07:38:08;;;;;;;22.90;14.50;;;9.90;99.90;;;;;;4944005;28;20515;-73
2024/02/10 07:40:36;;;;;;;20.75;14.88;;;9.90;99.90;;;;;;4960077;28;20046;-70
2024/02/10 07:43:05;;;;;;;21.17;14.15;;;9.90;99.90;;;;;;4947136;28;20043;-71
2024/02/10 07:45:33;;;;;;;22.50;14.82;;;9.80;99.90;;;;;;4947991;28;20065;-72
2024/02/10 07:48:01;;;;;;;19.63;13.15;;;9.90;99.90;;;;;;4948626;28;20056;-72
2024/02/10 07:50:28;;;;;;;19.10;12.95;;;9.90;99.90;;;;;;4930364;28;20051;-72
2024/02/10 07:52:55;;;;;;;20.77;13.73;;;9.80;99.90;;;;;;4943016;28;20055;-72
2024/02/10 07:55:23;;;;;;;29.92;14.75;;;9.90;99.90;;;;;;4950804;28;20137;-72
2024/02/10 07:57:51;;;;;;;24.25;14.38;;;9.90;99.90;;;;;;4945546;28;20074;-72
2024/02/10 08:00:18;;;;;;;24.95;14.85;;;9.90;99.90;;;;;;4954853;28;20316;-72
2024/02/10 08:02:46;;;;;;;28.15;14.38;;;9.90;99.90;;;;;;4951339;28;20107;-71
2024/02/10 08:05:20;;;;;;;19.95;12.38;;;10.00;99.90;;;;;;4945479;28;20047;-71
2024/02/10 08:07:47;;;;;;;23.05;14.00;;;9.90;99.90;;;;;;4966155;28;20058;-72
2024/02/10 08:10:15;;;;;;;19.98;13.18;;;10.00;99.90;;;;;;4953248;28;20102;-73
2024/02/10 08:12:45;;;;;;;24.77;14.07;;;10.10;99.90;;;;;;4949234;28;20450;-72
2024/02/10 08:15:12;;;;;;;17.02;11.60;;;10.20;99.90;;;;;;4945923;28;20470;-72
2024/02/10 08:17:40;;;;;;;16.73;12.05;;;10.20;99.90;;;;;;4947976;28;20425;-71
2024/02/10 08:20:10;;;;;;;17.20;11.88;;;10.20;99.90;;;;;;4942297;28;20633;-71
2024/02/10 08:22:37;;;;;;;60.00;16.52;;;10.20;99.90;;;;;;4950130;28;20054;-71
2024/02/10 08:25:07;;;;;;;17.00;11.65;;;10.20;99.90;;;;;;4951376;28;20034;-72
2024/02/10 08:27:34;;;;;;;16.35;11.00;;;10.20;99.90;;;;;;4962200;28;20138;-72
2024/02/10 08:30:04;;;;;;;14.43;10.68;;;10.20;99.90;;;;;;4946952;28;20774;-73
2024/02/10 08:32:31;;;;;;;24.45;11.85;;;10.20;99.90;;;;;;4951722;28;20422;-72
2024/02/10 08:35:00;;;;;;;29.98;15.20;;;10.30;99.90;;;;;;4956254;28;20415;-71
2024/02/10 08:37:29;;;;;;;29.77;16.40;;;10.30;99.90;;;;;;4974755;28;20061;-72
2024/02/10 08:39:57;;;;;;;19.30;13.02;;;10.40;99.90;;;;;;4971777;28;20206;-73
2024/02/10 08:42:24;;;;;;;20.00;13.55;;;10.40;99.90;;;;;;4941370;28;20072;-72
2024/02/10 08:44:52;;;;;;;18.02;13.13;;;10.30;99.90;;;;;;4951263;28;20067;-72
2024/02/10 08:47:19;;;;;;;18.85;14.25;;;10.30;99.90;;;;;;4967976;28;20121;-74
2024/02/10 08:49:49;;;;;;;19.17;13.85;;;10.40;99.90;;;;;;4947049;28;20051;-73
2024/02/10 08:52:16;;;;;;;19.70;12.52;;;10.40;99.90;;;;;;4947839;28;20098;-73
2024/02/10 08:54:45;;;;;;;26.25;12.52;;;10.40;99.90;;;;;;4948355;28;20047;-73
2024/02/10 08:57:15;;;;;;;19.20;11.35;;;10.50;99.90;;;;;;4945481;28;20572;-72
2024/02/10 08:59:48;;;;;;;16.38;11.07;;;10.50;99.90;;;;;;4949233;28;20141;-72
2024/02/10 09:02:16;;;;;;;43.50;12.63;;;10.60;99.90;;;;;;4933785;28;20055;-73
2024/02/10 09:04:44;;;;;;;18.88;11.57;;;10.60;99.90;;;;;;4929412;28;20134;-74
2024/02/10 09:07:12;;;;;;;38.20;12.55;;;10.60;99.90;;;;;;4926098;28;20642;-73
2024/02/10 09:09:41;;;;;;;39.92;15.05;;;10.60;99.90;;;;;;4933308;28;20062;-74
2024/02/10 09:12:08;;;;;;;14.30;10.50;;;10.80;99.90;;;;;;4927805;28;20062;-74
2024/02/10 09:14:35;;;;;;;13.80;9.00;;;10.70;99.90;;;;;;4929824;28;20051;-73
2024/02/10 09:17:01;;;;;;;13.23;11.52;;;10.80;99.90;;;;;;4928589;28;20050;-74
2024/02/10 09:19:29;;;;;;;13.90;9.98;;;10.80;99.90;;;;;;4932638;28;20146;-73
2024/02/10 09:21:57;;;;;;;14.20;10.43;;;10.80;99.90;;;;;;4924412;28;20067;-74
2024/02/10 09:24:26;;;;;;;22.48;13.52;;;10.80;99.90;;;;;;4928163;28;20822;-74
2024/02/10 09:26:55;;;;;;;18.48;11.85;;;10.80;99.90;;;;;;4951964;28;20150;-74
2024/02/10 09:29:22;;;;;;;18.02;11.65;;;11.00;99.90;;;;;;4938162;28;20105;-74
2024/02/10 09:31:52;;;;;;;14.70;11.10;;;11.00;99.90;;;;;;4936798;28;20047;-74
2024/02/10 09:34:20;;;;;;;15.82;12.15;;;11.20;99.90;;;;;;4940010;28;20134;-74
2024/02/10 09:36:48;;;;;;;14.77;10.48;;;11.20;99.90;;;;;;4940753;28;20043;-72
2024/02/10 09:39:18;;;;;;;15.45;10.30;;;11.20;99.90;;;;;;4950274;28;20051;-72
2024/02/10 09:41:45;;;;;;;11.50;10.30;;;11.20;99.90;;;;;;4946687;28;20074;-72
2024/02/10 09:44:14;;;;;;;18.10;11.13;;;11.20;99.90;;;;;;4944559;28;20138;-73
2024/02/10 09:46:41;;;;;;;13.27;10.52;;;11.20;99.90;;;;;;4937212;28;20047;-72
2024/02/10 09:49:09;;;;;;;11.75;10.65;;;11.40;99.90;;;;;;4922686;28;20042;-73
2024/02/10 09:51:41;;;;;;;10.43;9.32;;;11.30;99.90;;;;;;4929172;28;20046;-73
2024/02/10 09:54:11;;;;;;;10.60;9.68;;;11.30;99.90;;;;;;4931057;28;20054;-73
2024/02/10 09:56:38;;;;;;;10.93;9.82;;;11.30;99.90;;;;;;4938097;28;20127;-73
2024/02/10 09:59:17;;;;;;;10.13;9.13;;;11.30;99.90;;;;;;4941519;28;20407;-73
2024/02/10 10:01:44;;;;;;;11.90;10.07;;;11.10;99.90;;;;;;4958237;28;20043;-73
2024/02/10 10:04:12;;;;;;;11.48;10.10;;;11.10;99.90;;;;;;4963102;28;20589;-73
2024/02/10 10:06:43;;;;;;;12.50;9.52;;;11.00;99.90;;;;;;4945863;28;20046;-73
2024/02/10 10:09:12;;;;;;;10.10;9.10;;;11.10;99.90;;;;;;4961124;28;20081;-73
2024/02/10 10:11:45;;;;;;;10.75;9.75;;;11.20;99.90;;;;;;4934835;28;20075;-73
2024/02/10 10:14:14;;;;;;;15.07;9.38;;;11.20;99.90;;;;;;4921757;28;20223;-74
2024/02/10 10:16:41;;;;;;;11.32;9.93;;;11.30;99.90;;;;;;4920190;28;20048;-73
2024/02/10 10:19:19;;;;;;;10.65;9.32;;;11.50;99.90;;;;;;4923600;28;20044;-72
2024/02/10 10:21:48;;;;;;;11.18;9.93;;;11.60;99.90;;;;;;4923722;28;20039;-74
2024/02/10 10:24:18;;;;;;;11.85;10.75;;;11.50;99.90;;;;;;4943551;28;20043;-72
2024/02/10 10:26:50;;;;;;;10.00;9.10;;;11.50;99.90;;;;;;4937475;28;20057;-72
2024/02/10 10:29:19;;;;;;;9.43;8.65;;;11.70;99.90;;;;;;4950369;28;20077;-73
2024/02/10 10:31:49;;;;;;;10.65;9.65;;;11.70;99.90;;;;;;4960109;28;20043;-73
2024/02/10 10:34:19;;;;;;;10.18;9.23;;;11.60;99.90;;;;;;4941664;28;20038;-73
2024/02/10 10:36:52;;;;;;;10.20;9.40;;;11.60;99.90;;;;;;4952173;28;20602;-73
2024/02/10 10:39:22;;;;;;;9.80;9.00;;;11.60;99.90;;;;;;4941660;28;20138;-73
2024/02/10 10:41:51;;;;;;;10.95;10.07;;;11.60;99.90;;;;;;4927886;28;20339;-73
2024/02/10 10:44:20;;;;;;;10.40;9.43;;;11.60;99.90;;;;;;4916876;28;20055;-73
2024/02/10 10:46:48;;;;;;;9.27;8.57;;;11.80;99.90;;;;;;4922066;28;20081;-74
2024/02/10 10:49:15;;;;;;;12.07;11.38;;;12.10;99.90;;;;;;4917048;28;20055;-73
2024/02/10 10:52:03;;;;;;;12.15;11.45;;;12.20;99.90;;;;;;4934822;28;20850;-74
2024/02/10 10:54:36;;;;;;;11.43;10.73;;;12.20;99.90;;;;;;4931495;28;20359;-75
2024/02/10 10:57:16;;;;;;;14.88;12.10;;;12.20;99.90;;;;;;4941391;28;20101;-73
2024/02/10 10:59:51;;;;;;;12.93;12.02;;;12.20;99.90;;;;;;4938202;28;20050;-72
2024/02/10 11:02:19;;;;;;;;;;;12.20;99.90;;;;;;4939216;28;20051;-74
2024/02/10 11:05:08;;;;;;;14.18;10.98;;;12.40;99.90;;;;;;4924744;28;20326;-73
2024/02/10 11:07:45;;;;;;;15.75;14.88;;;12.60;99.90;;;;;;4963293;28;20047;-73
2024/02/10 11:10:31;;;;;;;13.80;13.10;;;12.60;99.90;;;;;;4946534;28;20055;-73
2024/02/10 11:13:01;;;;;;;11.68;10.88;;;12.60;99.90;;;;;;4943980;28;20162;-73
2024/02/10 11:15:30;;;;;;;16.02;15.13;;;12.80;99.90;;;;;;4938888;28;20101;-74
2024/02/10 11:17:57;;;;;;;13.93;13.02;;;13.00;99.90;;;;;;4941466;28;20595;-74
2024/02/10 11:20:38;;;;;;;14.93;14.13;;;13.00;99.90;;;;;;4935670;28;20123;-74
2024/02/10 11:23:13;;;;;;;15.35;14.45;;;12.90;99.90;;;;;;4945146;28;20437;-73
2024/02/10 11:25:41;;;;;;;14.93;14.10;;;12.90;99.90;;;;;;4941107;28;20050;-74
2024/02/10 11:28:23;;;;;;;17.02;15.88;;;13.10;99.90;;;;;;4943729;28;20133;-74
2024/02/10 11:30:50;;;;;;;15.70;14.73;;;13.20;99.90;;;;;;4946059;28;20667;-74
2024/02/10 11:33:29;;;;;;;14.50;13.77;;;13.20;99.90;;;;;;4945199;28;20054;-73
2024/02/10 11:35:58;;;;;;;15.07;14.38;;;13.10;99.90;;;;;;4949592;28;20134;-72
2024/02/10 11:38:25;;;;;;;15.38;14.57;;;13.00;99.90;;;;;;4934642;28;20110;-72
2024/02/10 11:40:55;;;;;;;17.63;16.48;;;13.10;99.90;;;;;;4924858;28;20051;-74
2024/02/10 11:43:27;;;;;;;16.27;15.38;;;13.10;99.90;;;;;;4937365;28;20039;-73
2024/02/10 11:45:54;;;;;;;15.50;14.70;;;13.10;99.90;;;;;;4939461;28;20057;-74
2024/02/10 11:48:22;;;;;;;20.80;19.90;;;13.10;99.90;;;;;;4942917;28;21203;-73
2024/02/10 11:50:52;;;;;;;15.73;14.93;;;13.10;99.90;;;;;;4944613;28;20047;-73
2024/02/10 11:53:31;;;;;;;23.75;22.65;;;13.00;99.90;;;;;;4937740;28;20059;-73
2024/02/10 11:55:59;;;;;;;24.92;23.42;;;12.80;99.90;;;;;;4938413;28;20051;-73
2024/02/10 11:58:29;;;;;;;21.52;20.42;;;12.70;99.90;;;;;;4915145;28;20110;-74
2024/02/10 12:00:56;;;;;;;23.55;22.45;;;12.60;99.90;;;;;;4928987;28;20051;-73
2024/02/10 12:03:25;;;;;;;28.75;27.45;;;12.70;99.90;;;;;;4922953;28;20051;-73
2024/02/10 12:05:53;;;;;;;22.05;20.73;;;12.80;99.90;;;;;;4916994;28;20759;-73
2024/02/10 12:08:23;;;;;;;20.05;19.15;;;12.80;99.90;;;;;;4900253;28;20423;-73
2024/02/10 12:10:51;;;;;;;21.65;20.55;;;12.80;99.90;;;;;;4933042;28;20035;-73
2024/02/10 12:13:19;;;;;;;22.73;21.73;;;12.90;99.90;;;;;;4922677;28;20098;-73
2024/02/10 12:15:46;;;;;;;19.48;18.52;;;12.70;99.90;;;;;;4960115;28;20130;-73
2024/02/10 12:18:13;;;;;;;20.85;19.75;;;12.60;99.90;;;;;;4924283;28;20047;-73
2024/02/10 12:20:41;;;;;;;27.80;26.55;;;12.60;99.90;;;;;;4933140;28;20515;-73
2024/02/10 12:23:09;;;;;;;28.85;27.52;;;12.40;99.90;;;;;;4928878;28;20704;-73
2024/02/10 12:25:37;;;;;;;25.23;24.02;;;12.40;99.90;;;;;;4920478;28;20046;-73
2024/02/10 12:28:05;;;;;;;29.80;28.48;;;12.40;99.90;;;;;;4945056;28;20482;-74
2024/02/10 12:30:39;;;;;;;19.77;18.88;;;12.50;99.90;;;;;;4929963;28;20075;-74
2024/02/10 12:33:06;;;;;;;19.23;18.02;;;12.50;99.90;;;;;;4945865;28;20137;-74
2024/02/10 12:35:33;;;;;;;20.33;19.38;;;12.60;99.90;;;;;;4959190;28;20594;-74
2024/02/10 12:38:00;;;;;;;32.72;31.20;;;12.60;99.90;;;;;;4961813;28;20047;-73
2024/02/10 12:40:27;;;;;;;35.20;33.30;;;12.60;99.90;;;;;;4939165;28;20051;-74
2024/02/10 12:42:54;;;;;;;27.95;26.45;;;12.50;99.90;;;;;;4964783;28;20109;-74